Aérodrome :
LOGIN :

S'inscrire | Disclaimer

   EN    FR    IT 

 










Légende :    VFR   VFR Marginal   IFR   IFR Intensif   IFR Très Intensif
Visi : 
Plafond : 
>= 8 km
>= 3000ft
5 à 8 km
1000 à 3000 ft
1500m à 5 km
500 à 1000 ft
800 à 1500m
200 à 500 ft
< 800m
< 200 ft
Symboles :   Orages  Brouillard  Fortes neiges  Fortes précipitations  Vent > 20 kt
SIGMETs :   Divers  Orages  Givrage  Turbulence  Onde Orograph.  Cendres Volcan.






- Altitude de l'aérodrome : 443 ft
- Code IATA : SQQ


EYSA - Siauliai

DERNIER METAR :
  • 251820Z 01006KT CAVOK 12/06 Q1026 BLU NOSIG

METARs EXPIRÉS :
  • 251750Z 03007KT CAVOK 14/07 Q1025 BLU NOSIG
  • 251720Z 03007KT CAVOK 14/06 Q1025 BLU NOSIG
  • 251650Z 03009KT CAVOK 15/06 Q1025 BLU NOSIG
  • 251620Z 03008KT 350V060 CAVOK 15/05 Q1024 BLU NOSIG
  • 251550Z 03009KT CAVOK 15/04 Q1024 BLU NOSIG

TAF TAF EYSA
Valide du 25 à 18h jusqu'au 26 à 03h UTC


251700Z 2518/2603 03009KT 9000 SCT035
TEMPO 2600/2603 3000 MIFG BR SCT005



MET'MAP, la Météo Aéronautique d'un coup d'oeil ! - Copyright ORBIFLY Décembre 2007 - Disclaimer

ORBIFLY MET'MAP TEAM :

Programmation & Développement : Alexandra Zaïnal
Sur une idée originale de : Baudouin d'Aumeries
Assistance à la programmation : Marc-Olivier Méhu
Soutien technique & logistique : Manuel Goepfert

Contact : metmap@orbifly.com




SOURCES & CREDITS :

   NOAA